sensor_id;sensor_type;location;lat;lon;timestamp;P1;durP1;ratioP1;P2;durP2;ratioP2
50563;SDS011;36514;52.590;21.448;2023-07-31T08:03:13;1855.09;;;942.64;;
50563;SDS011;36514;52.590;21.448;2023-07-31T08:13:19;1818.85;;;909.73;;
50563;SDS011;36514;52.590;21.448;2023-07-31T08:23:32;1829.99;;;920.18;;
50563;SDS011;36514;52.590;21.448;2023-07-31T08:33:29;1852.98;;;941.67;;
50563;SDS011;36514;52.590;21.448;2023-07-31T08:43:37;889.79;;;699.84;;
50563;SDS011;36514;52.590;21.448;2023-07-31T08:53:35;1117.28;;;708.15;;
50563;SDS011;36514;52.590;21.448;2023-07-31T09:03:41;1073.37;;;697.39;;
50563;SDS011;36514;52.590;21.448;2023-07-31T09:13:39;1425.09;;;657.12;;
50563;SDS011;36514;52.590;21.448;2023-07-31T09:23:43;1385.29;;;770.47;;
50563;SDS011;36514;52.590;21.448;2023-07-31T09:33:55;1300.98;;;734.07;;
50563;SDS011;36514;52.590;21.448;2023-07-31T09:44:06;966.77;;;753.15;;
50563;SDS011;36514;52.590;21.448;2023-07-31T09:54:01;1176.35;;;657.84;;
50563;SDS011;36514;52.590;21.448;2023-07-31T10:03:54;1472.21;;;800.95;;
50563;SDS011;36514;52.590;21.448;2023-07-31T10:14:00;1315.05;;;698.81;;
50563;SDS011;36514;52.590;21.448;2023-07-31T10:24:13;1488.95;;;809.91;;
50563;SDS011;36514;52.590;21.448;2023-07-31T10:34:33;1053.14;;;724.34;;
50563;SDS011;36514;52.590;21.448;2023-07-31T10:45:01;831.86;;;595.30;;
50563;SDS011;36514;52.590;21.448;2023-07-31T10:55:25;738.45;;;638.25;;
50563;SDS011;36514;52.590;21.448;2023-07-31T11:15:43;679.91;;;617.43;;
50563;SDS011;36514;52.590;21.448;2023-07-31T11:25:40;846.23;;;701.81;;
50563;SDS011;36514;52.590;21.448;2023-07-31T11:35:42;786.94;;;668.03;;
50563;SDS011;36514;52.590;21.448;2023-07-31T11:45:41;843.17;;;671.86;;
50563;SDS011;36514;52.590;21.448;2023-07-31T11:55:30;840.36;;;621.85;;
50563;SDS011;36514;52.590;21.448;2023-07-31T12:05:23;1099.83;;;665.80;;
50563;SDS011;36514;52.590;21.448;2023-07-31T12:15:19;1229.05;;;740.49;;
50563;SDS011;36514;52.590;21.448;2023-07-31T12:25:18;1289.70;;;842.00;;
50563;SDS011;36514;52.590;21.448;2023-07-31T12:35:21;1286.05;;;747.29;;
50563;SDS011;36514;52.590;21.448;2023-07-31T12:45:35;1219.58;;;813.38;;
50563;SDS011;36514;52.590;21.448;2023-07-31T12:55:35;1264.85;;;840.41;;
50563;SDS011;36514;52.590;21.448;2023-07-31T13:05:25;1305.51;;;741.18;;
50563;SDS011;36514;52.590;21.448;2023-07-31T13:15:24;1415.99;;;765.49;;
50563;SDS011;36514;52.590;21.448;2023-07-31T13:25:31;1480.37;;;862.10;;
50563;SDS011;36514;52.590;21.448;2023-07-31T13:35:53;1395.68;;;791.53;;
50563;SDS011;36514;52.590;21.448;2023-07-31T13:45:55;1197.49;;;843.24;;
50563;SDS011;36514;52.590;21.448;2023-07-31T13:56:04;1237.84;;;757.03;;
50563;SDS011;36514;52.590;21.448;2023-07-31T14:05:57;1130.85;;;720.12;;
50563;SDS011;36514;52.590;21.448;2023-07-31T14:16:05;1484.95;;;841.77;;
50563;SDS011;36514;52.590;21.448;2023-07-31T14:25:58;1445.41;;;773.95;;
50563;SDS011;36514;52.590;21.448;2023-07-31T14:35:51;1407.73;;;706.05;;
50563;SDS011;36514;52.590;21.448;2023-07-31T14:45:48;1421.90;;;731.25;;
50563;SDS011;36514;52.590;21.448;2023-07-31T14:55:46;1329.30;;;644.63;;
50563;SDS011;36514;52.590;21.448;2023-07-31T15:05:43;1149.15;;;590.54;;
50563;SDS011;36514;52.590;21.448;2023-07-31T15:15:39;1208.40;;;506.83;;
50563;SDS011;36514;52.590;21.448;2023-07-31T15:25:37;1342.70;;;574.42;;
50563;SDS011;36514;52.590;21.448;2023-07-31T15:35:40;1322.75;;;598.17;;
50563;SDS011;36514;52.590;21.448;2023-07-31T15:45:37;1353.42;;;550.31;;
50563;SDS011;36514;52.590;21.448;2023-07-31T15:55:34;1527.03;;;734.56;;
50563;SDS011;36514;52.590;21.448;2023-07-31T16:05:49;1744.43;;;831.61;;
50563;SDS011;36514;52.590;21.448;2023-07-31T16:15:50;1620.44;;;757.36;;
50563;SDS011;36514;52.590;21.448;2023-07-31T16:25:47;1740.54;;;830.45;;
50563;SDS011;36514;52.590;21.448;2023-07-31T16:35:43;1795.06;;;846.30;;
50563;SDS011;36514;52.590;21.448;2023-07-31T16:45:40;1822.00;;;874.27;;
50563;SDS011;36514;52.590;21.448;2023-07-31T16:55:38;1756.73;;;827.46;;
50563;SDS011;36514;52.590;21.448;2023-07-31T17:05:35;1800.44;;;851.40;;
50563;SDS011;36514;52.590;21.448;2023-07-31T17:15:32;1802.55;;;854.29;;
50563;SDS011;36514;52.590;21.448;2023-07-31T17:25:28;1807.27;;;852.90;;
50563;SDS011;36514;52.590;21.448;2023-07-31T17:35:25;1822.01;;;843.74;;
50563;SDS011;36514;52.590;21.448;2023-07-31T17:45:21;1861.26;;;892.09;;
50563;SDS011;36514;52.590;21.448;2023-07-31T17:55:21;1905.68;;;882.88;;
50563;SDS011;36514;52.590;21.448;2023-07-31T18:05:29;1902.05;;;883.38;;
50563;SDS011;36514;52.590;21.448;2023-07-31T18:15:28;1874.12;;;870.69;;
50563;SDS011;36514;52.590;21.448;2023-07-31T18:25:55;1894.39;;;866.34;;
50563;SDS011;36514;52.590;21.448;2023-07-31T18:35:51;1936.41;;;855.75;;
50563;SDS011;36514;52.590;21.448;2023-07-31T18:45:54;1926.26;;;931.25;;
50563;SDS011;36514;52.590;21.448;2023-07-31T18:55:51;1948.44;;;858.75;;
50563;SDS011;36514;52.590;21.448;2023-07-31T19:05:49;1909.39;;;844.15;;
50563;SDS011;36514;52.590;21.448;2023-07-31T19:15:46;1917.09;;;889.95;;
50563;SDS011;36514;52.590;21.448;2023-07-31T19:25:49;1929.77;;;947.44;;
50563;SDS011;36514;52.590;21.448;2023-07-31T19:35:56;1948.33;;;912.88;;
50563;SDS011;36514;52.590;21.448;2023-07-31T19:45:51;1919.86;;;926.45;;
